Portada
METAR-TAF:

METAR-TAF

Aeroports :

Aeroport Internacional Diori Hamani

Niamey, Níger

latitud: 13-29N, longitud: 002-10E, altitud: 223 m

Observació

L'informe es va fer fa 16 minuts, a les 14:00 UTC
Vent 4 kt del Oest/Nord-Oest, variant entre Sud/Sud-Oest i Nord
Temperatura 37°C
Humitat 35%
Pressió 1009 hPa
Visibilitat 10 km o més
Escasses núvols a una alçada de 3000 ft

METAR: DRRN 281400Z 29004KT 200V360 9999 FEW030 37/19 Q1009 NOSIG

Hora: 15:16 (14:16 UTC)

Pronòstic

L'informe es va fer fa 3 hores i 16 minuts, a les 11:00 UTC
Pronòstic vàlid del 28 a les 12 UTC al 29 a les 18 UTC
Vent 5 kt del Sud-Oest
Visibilitat 10 km o més
Escasses núvols a una alçada de 2000 ft
Probabilitat 30% :
Temporalment
l' 28 a les 16 UTC al 28 a les 20 UTC
Escasses núvols a una alçada de 3000 ft, Cumulonimbus.
tempesta

TAF: DRRN 281100Z 2812/2918 22005KT 9999 FEW020 PROB30 TEMPO 2816/2820 TS FEW030CB

Observacions i pronòstics meteorològics de més de 4000 aeroports (METAR i TAF).

Les estacions disponibles són els punts grocs i vermells al mapa.

Posi el ratolí al punt desitjat per veure el nom de l'estació.

Feu clic per veure les observacions i els pronòstics meteorològics.

Per canviar el mapa: feu clic els botons verds amb una creu de color negre per apropar; al botó verd amb un guió per allunyar la imatge; o en les fletxes verdes per a mapes adjacents.


METAR-TAF: